Neosho, MO (64850)

1:45 PM CDT on July 24, 2014 (GMT -0500)
Rolling Meadows (KMONEOSH2) Elev 0 ft | 36.87 °N, 94.41 °W | Change Station

Current weather conditions updated 130 days ago

Clear
Clear
81 °F
Feels Like 81 °F
N
7
Wind Variable Wind from East
Gusts 7 mph

Today is forecast to be Much Warmer than yesterday.

Today
High -- | Low -- °F
--% Chance of Precip.
Yesterday
High -- | Low -- °F
Precip. -- in
6:16 AM 8:30 PM
Waning Crescent, 4% visible
Pressure 30.11 in
Visibility 10.0 miles
Clouds Scattered Clouds 3600 ft
Heat Index 81 °F
Dew Point 63 °F
Humidity 52%
Rainfall 0.00 in
Snow Depth Not available.
UV 10 out of 12
Pollen 5.40 out of 12
Air Quality Not available.
Flu Activity Not available.
METAR KHFJ 241835Z AUTO 11004KT 10SM SCT036 27/18 A3011 RMK AO2

More Conditions Fewer Conditions

Pressure 30.11 in
Visibility 10.0 miles
Clouds Scattered Clouds 3600 ft
Heat Index 81 °F
Dew Point 63 °F
Humidity 52%
Rainfall 0.00 in
Snow Depth Not available.
UV 10 out of 12
Pollen 5.40 out of 12
Air Quality Not available.
Flu Activity Not available.
METAR KHFJ 241835Z AUTO 11004KT 10SM SCT036 27/18 A3011 RMK AO2

More Conditions Fewer Conditions

10-Day Weather Forecast

Almanac

Astronomy

Jul. 24, 2014 Rise Set
Actual Time 6:16 AM CDT 8:30 PM CDT
Civil Twilight 5:47 AM CDT 9:00 PM CDT
Nautical Twilight 5:11 AM CDT 9:35 PM CDT
Astronomical Twilight 4:32 AM CDT 10:14 PM CDT
Moon 4:24 AM CDT 6:47 PM CDT
Length of Visible Light 15h 12m
Length of Day
14h 14m
Tomorrow will be 1m 31s shorter.
Waning Crescent, 4% of the Moon is Illuminated
Today
Waning Crescent
Jul 26
New
Aug 3
First Quarter
Aug 10
Full
Aug 17
Last Quarter

Today's Extremes

State Highs State Lows

Community

WunderPhotos

Upload Photos

1,737,091 photos uploaded!

Nearby

Snow Depth

Station Depth Elevation
No new snow has been reported.

Earthquake Activity

City Distance Mag. Time & Date
No recent earthquake activity has been reported nearby.
Minimum magnitude displayed is 2.5.

Coastal Water Temperatures

Place Temperature
No Stations Reporting

Nearby Weather Stations

Station Location Temp. Heat Index Dew Point Humidity Wind Precip. Elev Updated Type
APRSWXNET Joplin MO, Joplin, MO 83 °F 85 °F 66 °F 57% SE  at  3 mph 0.00 in / hr 940 ft 1:11 PM CDT MADIS
Mohaska, Joplin, MO 84.3 °F 87 °F 67 °F 57% ESE  at  2.0 mph 0.00 in / hr 1010 ft 1:45 PM CDT Normal
Farm Road 2100, Wheaton, MO 80.9 °F 83 °F 65 °F 59% East  at  4.0 mph 0.00 in / hr 1335 ft 1:45 PM CDT Rapid Fire
Monett, MO 83.1 °F 86 °F 67 °F 58% East  at  5.0 mph 0.00 in / hr 1306 ft 1:45 PM CDT Normal

Show More Stations Show Fewer Stations